sensor_id;sensor_type;location;lat;lon;timestamp;P1;durP1;ratioP1;P2;durP2;ratioP2
11951;SDS011;6036;41.840;23.486;2022-08-06T00:00:20;4.25;;;3.85;;
11951;SDS011;6036;41.840;23.486;2022-08-06T00:02:46;5.47;;;3.90;;
11951;SDS011;6036;41.840;23.486;2022-08-06T00:05:11;5.05;;;3.40;;
11951;SDS011;6036;41.840;23.486;2022-08-06T00:07:37;3.85;;;3.45;;
11951;SDS011;6036;41.840;23.486;2022-08-06T00:10:03;5.22;;;3.47;;
11951;SDS011;6036;41.840;23.486;2022-08-06T00:12:29;3.92;;;3.63;;
11951;SDS011;6036;41.840;23.486;2022-08-06T00:14:56;5.18;;;4.03;;
11951;SDS011;6036;41.840;23.486;2022-08-06T00:17:22;4.20;;;3.80;;
11951;SDS011;6036;41.840;23.486;2022-08-06T00:19:48;4.00;;;3.50;;
11951;SDS011;6036;41.840;23.486;2022-08-06T00:22:13;4.50;;;3.72;;
11951;SDS011;6036;41.840;23.486;2022-08-06T00:24:39;7.50;;;4.63;;
11951;SDS011;6036;41.840;23.486;2022-08-06T00:27:04;4.90;;;3.63;;
11951;SDS011;6036;41.840;23.486;2022-08-06T00:29:30;4.57;;;4.15;;
11951;SDS011;6036;41.840;23.486;2022-08-06T00:31:55;6.22;;;4.28;;
11951;SDS011;6036;41.840;23.486;2022-08-06T00:34:21;6.32;;;4.88;;
11951;SDS011;6036;41.840;23.486;2022-08-06T00:36:46;4.45;;;4.05;;
11951;SDS011;6036;41.840;23.486;2022-08-06T00:39:11;3.97;;;3.67;;
11951;SDS011;6036;41.840;23.486;2022-08-06T00:41:37;4.30;;;3.85;;
11951;SDS011;6036;41.840;23.486;2022-08-06T00:44:03;6.57;;;4.97;;
11951;SDS011;6036;41.840;23.486;2022-08-06T00:46:29;5.30;;;4.80;;
11951;SDS011;6036;41.840;23.486;2022-08-06T00:48:54;5.43;;;4.60;;
11951;SDS011;6036;41.840;23.486;2022-08-06T00:51:21;5.55;;;4.07;;
11951;SDS011;6036;41.840;23.486;2022-08-06T00:53:47;5.50;;;3.75;;
11951;SDS011;6036;41.840;23.486;2022-08-06T00:56:12;4.13;;;3.60;;
11951;SDS011;6036;41.840;23.486;2022-08-06T00:58:38;6.25;;;3.67;;
11951;SDS011;6036;41.840;23.486;2022-08-06T01:01:03;4.68;;;4.22;;
11951;SDS011;6036;41.840;23.486;2022-08-06T01:03:29;4.75;;;4.18;;
11951;SDS011;6036;41.840;23.486;2022-08-06T01:05:55;4.47;;;4.05;;
11951;SDS011;6036;41.840;23.486;2022-08-06T01:08:20;4.22;;;3.83;;
11951;SDS011;6036;41.840;23.486;2022-08-06T01:10:45;4.30;;;3.90;;
11951;SDS011;6036;41.840;23.486;2022-08-06T01:13:11;4.03;;;3.63;;
11951;SDS011;6036;41.840;23.486;2022-08-06T01:15:37;3.83;;;3.53;;
11951;SDS011;6036;41.840;23.486;2022-08-06T01:18:12;4.13;;;3.63;;
11951;SDS011;6036;41.840;23.486;2022-08-06T01:21:04;5.13;;;2.93;;
11951;SDS011;6036;41.840;23.486;2022-08-06T01:27:44;10.18;;;3.90;;
11951;SDS011;6036;41.840;23.486;2022-08-06T01:29:55;4.82;;;3.10;;
11951;SDS011;6036;41.840;23.486;2022-08-06T01:32:29;5.72;;;3.30;;
11951;SDS011;6036;41.840;23.486;2022-08-06T01:35:00;3.75;;;3.03;;
11951;SDS011;6036;41.840;23.486;2022-08-06T01:37:52;3.55;;;3.25;;
11951;SDS011;6036;41.840;23.486;2022-08-06T01:40:25;4.78;;;3.58;;
11951;SDS011;6036;41.840;23.486;2022-08-06T01:42:54;4.78;;;3.30;;
11951;SDS011;6036;41.840;23.486;2022-08-06T01:45:23;4.15;;;3.60;;
11951;SDS011;6036;41.840;23.486;2022-08-06T01:47:52;3.85;;;3.55;;
11951;SDS011;6036;41.840;23.486;2022-08-06T01:50:24;4.35;;;3.80;;
11951;SDS011;6036;41.840;23.486;2022-08-06T01:52:53;4.38;;;3.97;;
11951;SDS011;6036;41.840;23.486;2022-08-06T01:55:20;3.72;;;3.33;;
11951;SDS011;6036;41.840;23.486;2022-08-06T01:57:50;3.97;;;3.50;;
11951;SDS011;6036;41.840;23.486;2022-08-06T02:00:18;4.10;;;3.70;;
11951;SDS011;6036;41.840;23.486;2022-08-06T02:02:43;5.15;;;4.35;;
11951;SDS011;6036;41.840;23.486;2022-08-06T02:05:13;4.50;;;4.10;;
11951;SDS011;6036;41.840;23.486;2022-08-06T02:07:41;4.05;;;3.55;;
11951;SDS011;6036;41.840;23.486;2022-08-06T02:10:10;5.15;;;4.13;;
11951;SDS011;6036;41.840;23.486;2022-08-06T02:12:39;4.10;;;3.70;;
11951;SDS011;6036;41.840;23.486;2022-08-06T02:15:09;4.68;;;3.90;;
11951;SDS011;6036;41.840;23.486;2022-08-06T02:17:41;4.22;;;3.85;;
11951;SDS011;6036;41.840;23.486;2022-08-06T02:20:11;4.30;;;3.83;;
11951;SDS011;6036;41.840;23.486;2022-08-06T02:22:40;6.32;;;4.25;;
11951;SDS011;6036;41.840;23.486;2022-08-06T02:25:07;3.40;;;3.10;;
11951;SDS011;6036;41.840;23.486;2022-08-06T02:27:38;4.75;;;3.60;;
11951;SDS011;6036;41.840;23.486;2022-08-06T02:30:06;4.37;;;3.63;;
11951;SDS011;6036;41.840;23.486;2022-08-06T02:32:32;4.93;;;3.97;;
11951;SDS011;6036;41.840;23.486;2022-08-06T02:34:57;5.78;;;3.40;;
11951;SDS011;6036;41.840;23.486;2022-08-06T02:37:28;4.07;;;3.65;;
11951;SDS011;6036;41.840;23.486;2022-08-06T02:39:57;4.47;;;3.55;;
11951;SDS011;6036;41.840;23.486;2022-08-06T02:42:32;4.07;;;3.67;;
11951;SDS011;6036;41.840;23.486;2022-08-06T02:47:38;3.88;;;3.53;;
11951;SDS011;6036;41.840;23.486;2022-08-06T02:50:17;4.68;;;4.28;;
11951;SDS011;6036;41.840;23.486;2022-08-06T02:52:53;5.47;;;3.42;;
11951;SDS011;6036;41.840;23.486;2022-08-06T02:55:25;5.50;;;3.58;;
11951;SDS011;6036;41.840;23.486;2022-08-06T02:57:55;4.22;;;3.60;;
11951;SDS011;6036;41.840;23.486;2022-08-06T03:00:35;6.18;;;4.65;;
11951;SDS011;6036;41.840;23.486;2022-08-06T03:05:29;6.40;;;4.80;;
11951;SDS011;6036;41.840;23.486;2022-08-06T03:07:55;5.05;;;4.30;;
11951;SDS011;6036;41.840;23.486;2022-08-06T03:10:23;8.00;;;4.90;;
11951;SDS011;6036;41.840;23.486;2022-08-06T03:12:51;6.93;;;4.60;;
11951;SDS011;6036;41.840;23.486;2022-08-06T03:15:19;4.82;;;3.83;;
11951;SDS011;6036;41.840;23.486;2022-08-06T03:17:47;5.22;;;4.15;;
11951;SDS011;6036;41.840;23.486;2022-08-06T03:20:16;5.78;;;4.32;;
11951;SDS011;6036;41.840;23.486;2022-08-06T03:22:46;4.78;;;4.28;;
11951;SDS011;6036;41.840;23.486;2022-08-06T03:25:16;6.70;;;4.68;;
11951;SDS011;6036;41.840;23.486;2022-08-06T03:27:42;5.50;;;4.53;;
11951;SDS011;6036;41.840;23.486;2022-08-06T03:30:10;6.90;;;4.15;;
11951;SDS011;6036;41.840;23.486;2022-08-06T03:32:41;4.93;;;4.28;;
11951;SDS011;6036;41.840;23.486;2022-08-06T03:35:07;5.45;;;3.85;;
11951;SDS011;6036;41.840;23.486;2022-08-06T03:37:33;10.13;;;4.45;;
11951;SDS011;6036;41.840;23.486;2022-08-06T03:40:00;6.75;;;3.90;;
11951;SDS011;6036;41.840;23.486;2022-08-06T03:42:27;6.38;;;4.15;;
11951;SDS011;6036;41.840;23.486;2022-08-06T03:44:52;5.00;;;4.55;;
11951;SDS011;6036;41.840;23.486;2022-08-06T03:47:25;4.93;;;4.47;;
11951;SDS011;6036;41.840;23.486;2022-08-06T03:52:48;7.43;;;4.93;;
11951;SDS011;6036;41.840;23.486;2022-08-06T03:55:22;7.57;;;5.10;;
11951;SDS011;6036;41.840;23.486;2022-08-06T03:57:50;6.13;;;5.18;;
11951;SDS011;6036;41.840;23.486;2022-08-06T04:00:20;5.95;;;5.35;;
11951;SDS011;6036;41.840;23.486;2022-08-06T04:05:19;9.95;;;4.82;;
11951;SDS011;6036;41.840;23.486;2022-08-06T04:07:50;7.43;;;5.45;;
11951;SDS011;6036;41.840;23.486;2022-08-06T04:10:17;6.53;;;5.00;;
11951;SDS011;6036;41.840;23.486;2022-08-06T04:12:44;6.82;;;5.05;;
11951;SDS011;6036;41.840;23.486;2022-08-06T04:15:13;6.97;;;5.05;;
11951;SDS011;6036;41.840;23.486;2022-08-06T04:17:40;6.20;;;4.65;;
11951;SDS011;6036;41.840;23.486;2022-08-06T04:20:08;5.53;;;4.70;;
11951;SDS011;6036;41.840;23.486;2022-08-06T04:22:35;7.40;;;4.32;;
11951;SDS011;6036;41.840;23.486;2022-08-06T04:25:00;6.43;;;3.90;;
11951;SDS011;6036;41.840;23.486;2022-08-06T04:27:26;5.43;;;4.25;;
11951;SDS011;6036;41.840;23.486;2022-08-06T04:29:53;4.72;;;4.20;;
11951;SDS011;6036;41.840;23.486;2022-08-06T04:32:22;5.50;;;5.00;;
11951;SDS011;6036;41.840;23.486;2022-08-06T04:34:49;7.10;;;5.13;;
11951;SDS011;6036;41.840;23.486;2022-08-06T04:37:17;8.60;;;7.65;;
11951;SDS011;6036;41.840;23.486;2022-08-06T04:39:43;9.68;;;8.35;;
11951;SDS011;6036;41.840;23.486;2022-08-06T04:42:09;8.38;;;7.20;;
11951;SDS011;6036;41.840;23.486;2022-08-06T04:44:36;9.15;;;7.45;;
11951;SDS011;6036;41.840;23.486;2022-08-06T04:47:02;7.68;;;6.50;;
11951;SDS011;6036;41.840;23.486;2022-08-06T04:49:29;10.45;;;5.75;;
11951;SDS011;6036;41.840;23.486;2022-08-06T04:51:54;5.50;;;5.00;;
11951;SDS011;6036;41.840;23.486;2022-08-06T04:54:20;6.45;;;5.75;;
11951;SDS011;6036;41.840;23.486;2022-08-06T04:56:46;6.75;;;5.70;;
11951;SDS011;6036;41.840;23.486;2022-08-06T04:59:11;7.00;;;5.45;;
11951;SDS011;6036;41.840;23.486;2022-08-06T05:01:37;7.97;;;5.00;;
11951;SDS011;6036;41.840;23.486;2022-08-06T05:04:03;6.20;;;5.60;;
11951;SDS011;6036;41.840;23.486;2022-08-06T05:09:22;9.02;;;5.82;;
11951;SDS011;6036;41.840;23.486;2022-08-06T05:11:51;13.88;;;9.52;;
11951;SDS011;6036;41.840;23.486;2022-08-06T05:14:24;12.13;;;10.30;;
11951;SDS011;6036;41.840;23.486;2022-08-06T05:16:53;13.20;;;10.45;;
11951;SDS011;6036;41.840;23.486;2022-08-06T05:19:25;11.45;;;9.43;;
11951;SDS011;6036;41.840;23.486;2022-08-06T05:21:53;11.95;;;9.90;;
11951;SDS011;6036;41.840;23.486;2022-08-06T05:24:20;15.90;;;10.48;;
11951;SDS011;6036;41.840;23.486;2022-08-06T05:26:46;10.38;;;8.93;;
11951;SDS011;6036;41.840;23.486;2022-08-06T05:29:16;12.85;;;9.10;;
11951;SDS011;6036;41.840;23.486;2022-08-06T05:31:43;10.75;;;8.88;;
11951;SDS011;6036;41.840;23.486;2022-08-06T05:34:09;9.27;;;7.40;;
11951;SDS011;6036;41.840;23.486;2022-08-06T05:36:36;7.90;;;6.90;;
11951;SDS011;6036;41.840;23.486;2022-08-06T05:39:03;8.73;;;7.70;;
11951;SDS011;6036;41.840;23.486;2022-08-06T05:41:28;10.80;;;9.63;;
11951;SDS011;6036;41.840;23.486;2022-08-06T05:43:54;15.38;;;10.38;;
11951;SDS011;6036;41.840;23.486;2022-08-06T05:46:20;20.00;;;13.25;;
11951;SDS011;6036;41.840;23.486;2022-08-06T05:51:43;10.55;;;8.88;;
11951;SDS011;6036;41.840;23.486;2022-08-06T05:54:30;10.65;;;8.23;;
11951;SDS011;6036;41.840;23.486;2022-08-06T05:57:20;11.77;;;8.82;;
11951;SDS011;6036;41.840;23.486;2022-08-06T05:59:53;8.80;;;7.85;;
11951;SDS011;6036;41.840;23.486;2022-08-06T06:02:25;8.10;;;7.30;;
11951;SDS011;6036;41.840;23.486;2022-08-06T06:04:53;11.00;;;9.23;;
11951;SDS011;6036;41.840;23.486;2022-08-06T06:07:19;10.95;;;8.25;;
11951;SDS011;6036;41.840;23.486;2022-08-06T06:09:45;12.68;;;9.15;;
11951;SDS011;6036;41.840;23.486;2022-08-06T06:12:12;9.23;;;8.00;;
11951;SDS011;6036;41.840;23.486;2022-08-06T06:14:44;9.68;;;7.22;;
11951;SDS011;6036;41.840;23.486;2022-08-06T06:22:31;8.68;;;7.88;;
11951;SDS011;6036;41.840;23.486;2022-08-06T06:27:43;8.90;;;7.75;;
11951;SDS011;6036;41.840;23.486;2022-08-06T06:30:35;11.53;;;8.43;;
11951;SDS011;6036;41.840;23.486;2022-08-06T06:36:49;8.88;;;7.95;;
11951;SDS011;6036;41.840;23.486;2022-08-06T06:42:01;10.07;;;8.32;;
11951;SDS011;6036;41.840;23.486;2022-08-06T06:44:57;8.80;;;7.95;;
11951;SDS011;6036;41.840;23.486;2022-08-06T06:47:41;10.05;;;8.85;;
11951;SDS011;6036;41.840;23.486;2022-08-06T06:50:21;9.30;;;7.68;;
11951;SDS011;6036;41.840;23.486;2022-08-06T06:52:51;9.68;;;8.55;;
11951;SDS011;6036;41.840;23.486;2022-08-06T06:55:23;12.00;;;7.50;;
11951;SDS011;6036;41.840;23.486;2022-08-06T06:58:03;7.55;;;6.75;;
11951;SDS011;6036;41.840;23.486;2022-08-06T07:00:30;8.77;;;7.30;;
11951;SDS011;6036;41.840;23.486;2022-08-06T07:02:58;7.40;;;6.70;;
11951;SDS011;6036;41.840;23.486;2022-08-06T07:05:26;8.80;;;6.35;;
11951;SDS011;6036;41.840;23.486;2022-08-06T07:07:54;6.65;;;5.95;;
11951;SDS011;6036;41.840;23.486;2022-08-06T07:10:21;6.28;;;5.65;;
11951;SDS011;6036;41.840;23.486;2022-08-06T07:12:48;6.72;;;6.03;;
11951;SDS011;6036;41.840;23.486;2022-08-06T07:15:15;6.93;;;6.28;;
11951;SDS011;6036;41.840;23.486;2022-08-06T07:17:43;6.60;;;5.70;;
11951;SDS011;6036;41.840;23.486;2022-08-06T07:20:10;6.85;;;6.15;;
11951;SDS011;6036;41.840;23.486;2022-08-06T07:22:38;5.88;;;5.28;;
11951;SDS011;6036;41.840;23.486;2022-08-06T07:25:06;8.20;;;5.38;;
11951;SDS011;6036;41.840;23.486;2022-08-06T07:27:35;4.50;;;4.10;;
11951;SDS011;6036;41.840;23.486;2022-08-06T07:30:03;3.25;;;2.90;;
11951;SDS011;6036;41.840;23.486;2022-08-06T07:32:31;4.20;;;3.08;;
11951;SDS011;6036;41.840;23.486;2022-08-06T07:37:25;5.82;;;3.30;;
11951;SDS011;6036;41.840;23.486;2022-08-06T07:39:54;3.08;;;2.78;;
11951;SDS011;6036;41.840;23.486;2022-08-06T07:42:21;6.47;;;3.30;;
11951;SDS011;6036;41.840;23.486;2022-08-06T07:44:51;4.72;;;3.60;;
11951;SDS011;6036;41.840;23.486;2022-08-06T07:47:19;4.40;;;3.83;;
11951;SDS011;6036;41.840;23.486;2022-08-06T07:49:53;6.82;;;5.63;;
11951;SDS011;6036;41.840;23.486;2022-08-06T07:52:21;6.40;;;5.70;;
11951;SDS011;6036;41.840;23.486;2022-08-06T07:54:46;6.32;;;5.10;;
11951;SDS011;6036;41.840;23.486;2022-08-06T07:57:13;5.15;;;4.72;;
11951;SDS011;6036;41.840;23.486;2022-08-06T07:59:39;5.35;;;4.18;;
11951;SDS011;6036;41.840;23.486;2022-08-06T08:02:05;4.15;;;3.75;;
11951;SDS011;6036;41.840;23.486;2022-08-06T08:04:35;7.15;;;4.40;;
11951;SDS011;6036;41.840;23.486;2022-08-06T08:07:20;5.10;;;4.55;;
11951;SDS011;6036;41.840;23.486;2022-08-06T08:09:46;5.25;;;4.65;;
11951;SDS011;6036;41.840;23.486;2022-08-06T08:12:14;6.20;;;3.30;;
11951;SDS011;6036;41.840;23.486;2022-08-06T08:17:11;6.15;;;4.60;;
11951;SDS011;6036;41.840;23.486;2022-08-06T08:19:37;3.65;;;3.15;;
11951;SDS011;6036;41.840;23.486;2022-08-06T08:22:08;3.00;;;2.70;;
11951;SDS011;6036;41.840;23.486;2022-08-06T08:24:36;3.50;;;3.20;;
11951;SDS011;6036;41.840;23.486;2022-08-06T08:27:03;2.90;;;2.33;;
11951;SDS011;6036;41.840;23.486;2022-08-06T08:29:33;2.70;;;2.30;;
11951;SDS011;6036;41.840;23.486;2022-08-06T08:31:59;2.13;;;2.00;;
11951;SDS011;6036;41.840;23.486;2022-08-06T08:34:25;3.33;;;2.95;;
11951;SDS011;6036;41.840;23.486;2022-08-06T08:36:51;2.85;;;2.08;;
11951;SDS011;6036;41.840;23.486;2022-08-06T08:39:16;2.30;;;1.85;;
11951;SDS011;6036;41.840;23.486;2022-08-06T08:41:52;3.33;;;3.05;;
11951;SDS011;6036;41.840;23.486;2022-08-06T08:44:24;2.50;;;2.30;;
11951;SDS011;6036;41.840;23.486;2022-08-06T08:46:53;2.47;;;2.22;;
11951;SDS011;6036;41.840;23.486;2022-08-06T08:51:53;2.10;;;1.90;;
11951;SDS011;6036;41.840;23.486;2022-08-06T08:54:21;2.00;;;1.80;;
11951;SDS011;6036;41.840;23.486;2022-08-06T08:56:48;2.00;;;1.80;;
11951;SDS011;6036;41.840;23.486;2022-08-06T08:59:14;2.20;;;1.90;;
11951;SDS011;6036;41.840;23.486;2022-08-06T09:01:41;1.80;;;1.70;;
11951;SDS011;6036;41.840;23.486;2022-08-06T09:04:08;3.35;;;2.47;;
11951;SDS011;6036;41.840;23.486;2022-08-06T09:06:34;4.40;;;2.30;;
11951;SDS011;6036;41.840;23.486;2022-08-06T09:09:02;2.13;;;1.90;;
11951;SDS011;6036;41.840;23.486;2022-08-06T09:11:30;2.78;;;2.20;;
11951;SDS011;6036;41.840;23.486;2022-08-06T09:13:59;2.30;;;2.10;;
11951;SDS011;6036;41.840;23.486;2022-08-06T09:16:26;2.50;;;2.30;;
11951;SDS011;6036;41.840;23.486;2022-08-06T09:18:52;2.85;;;2.00;;
11951;SDS011;6036;41.840;23.486;2022-08-06T09:21:18;2.28;;;1.90;;
11951;SDS011;6036;41.840;23.486;2022-08-06T09:23:43;2.55;;;2.10;;
11951;SDS011;6036;41.840;23.486;2022-08-06T09:26:09;2.08;;;1.98;;
11951;SDS011;6036;41.840;23.486;2022-08-06T09:28:35;2.08;;;1.90;;
11951;SDS011;6036;41.840;23.486;2022-08-06T09:31:02;2.03;;;1.88;;
11951;SDS011;6036;41.840;23.486;2022-08-06T09:33:33;2.67;;;2.47;;
11951;SDS011;6036;41.840;23.486;2022-08-06T09:36:03;3.15;;;2.63;;
11951;SDS011;6036;41.840;23.486;2022-08-06T09:38:46;3.45;;;2.38;;
11951;SDS011;6036;41.840;23.486;2022-08-06T09:41:13;2.67;;;2.00;;
11951;SDS011;6036;41.840;23.486;2022-08-06T09:43:39;3.30;;;3.00;;
11951;SDS011;6036;41.840;23.486;2022-08-06T09:46:05;3.15;;;2.85;;
11951;SDS011;6036;41.840;23.486;2022-08-06T09:48:31;4.47;;;3.20;;
11951;SDS011;6036;41.840;23.486;2022-08-06T09:50:57;3.63;;;2.75;;
11951;SDS011;6036;41.840;23.486;2022-08-06T09:53:23;3.72;;;2.00;;
11951;SDS011;6036;41.840;23.486;2022-08-06T09:55:50;2.65;;;2.10;;
11951;SDS011;6036;41.840;23.486;2022-08-06T09:58:30;2.43;;;2.23;;
11951;SDS011;6036;41.840;23.486;2022-08-06T10:00:56;2.20;;;2.10;;
11951;SDS011;6036;41.840;23.486;2022-08-06T10:03:22;3.28;;;2.05;;
11951;SDS011;6036;41.840;23.486;2022-08-06T10:06:01;2.55;;;2.20;;
11951;SDS011;6036;41.840;23.486;2022-08-06T10:08:31;2.33;;;2.13;;
11951;SDS011;6036;41.840;23.486;2022-08-06T10:10:56;2.30;;;2.10;;
11951;SDS011;6036;41.840;23.486;2022-08-06T10:13:27;2.30;;;2.10;;
11951;SDS011;6036;41.840;23.486;2022-08-06T10:15:55;2.28;;;2.08;;
11951;SDS011;6036;41.840;23.486;2022-08-06T10:18:37;2.05;;;1.95;;
11951;SDS011;6036;41.840;23.486;2022-08-06T10:21:09;2.58;;;2.38;;
11951;SDS011;6036;41.840;23.486;2022-08-06T10:23:40;4.10;;;2.30;;
11951;SDS011;6036;41.840;23.486;2022-08-06T10:26:09;2.45;;;2.03;;
11951;SDS011;6036;41.840;23.486;2022-08-06T10:28:37;2.10;;;1.90;;
11951;SDS011;6036;41.840;23.486;2022-08-06T10:31:07;2.67;;;2.10;;
11951;SDS011;6036;41.840;23.486;2022-08-06T10:33:37;2.35;;;2.17;;
11951;SDS011;6036;41.840;23.486;2022-08-06T10:36:04;2.38;;;2.20;;
11951;SDS011;6036;41.840;23.486;2022-08-06T10:38:34;1.98;;;1.77;;
11951;SDS011;6036;41.840;23.486;2022-08-06T10:41:09;3.78;;;2.20;;
11951;SDS011;6036;41.840;23.486;2022-08-06T10:43:36;2.38;;;2.17;;
11951;SDS011;6036;41.840;23.486;2022-08-06T10:46:06;2.83;;;2.30;;
11951;SDS011;6036;41.840;23.486;2022-08-06T10:48:37;3.33;;;2.17;;
11951;SDS011;6036;41.840;23.486;2022-08-06T10:51:06;2.28;;;2.13;;
11951;SDS011;6036;41.840;23.486;2022-08-06T10:53:35;3.22;;;1.98;;
11951;SDS011;6036;41.840;23.486;2022-08-06T10:56:02;2.72;;;1.80;;
11951;SDS011;6036;41.840;23.486;2022-08-06T10:58:30;2.63;;;2.43;;
11951;SDS011;6036;41.840;23.486;2022-08-06T11:00:58;2.17;;;1.98;;
11951;SDS011;6036;41.840;23.486;2022-08-06T11:06:00;2.10;;;1.85;;
11951;SDS011;6036;41.840;23.486;2022-08-06T11:11:58;3.08;;;2.15;;
11951;SDS011;6036;41.840;23.486;2022-08-06T11:16:57;5.63;;;2.50;;
11951;SDS011;6036;41.840;23.486;2022-08-06T11:19:42;2.22;;;1.90;;
11951;SDS011;6036;41.840;23.486;2022-08-06T11:22:32;3.75;;;2.05;;
11951;SDS011;6036;41.840;23.486;2022-08-06T11:24:58;2.15;;;1.98;;
11951;SDS011;6036;41.840;23.486;2022-08-06T11:30:21;3.10;;;2.63;;
11951;SDS011;6036;41.840;23.486;2022-08-06T11:33:03;2.92;;;2.38;;
11951;SDS011;6036;41.840;23.486;2022-08-06T11:38:02;4.45;;;2.58;;
11951;SDS011;6036;41.840;23.486;2022-08-06T11:46:21;2.40;;;2.20;;
11951;SDS011;6036;41.840;23.486;2022-08-06T11:54:14;5.45;;;3.45;;
11951;SDS011;6036;41.840;23.486;2022-08-06T11:57:26;3.55;;;2.60;;
11951;SDS011;6036;41.840;23.486;2022-08-06T11:59:36;4.60;;;3.30;;
11951;SDS011;6036;41.840;23.486;2022-08-06T12:02:04;3.72;;;3.10;;
11951;SDS011;6036;41.840;23.486;2022-08-06T12:07:13;5.40;;;3.33;;
11951;SDS011;6036;41.840;23.486;2022-08-06T12:12:46;2.95;;;2.70;;
11951;SDS011;6036;41.840;23.486;2022-08-06T12:20:51;4.82;;;3.25;;
11951;SDS011;6036;41.840;23.486;2022-08-06T12:23:13;3.92;;;3.10;;
11951;SDS011;6036;41.840;23.486;2022-08-06T12:25:42;3.58;;;3.10;;
11951;SDS011;6036;41.840;23.486;2022-08-06T12:28:10;4.20;;;3.20;;
11951;SDS011;6036;41.840;23.486;2022-08-06T12:30:47;3.53;;;2.90;;
11951;SDS011;6036;41.840;23.486;2022-08-06T12:33:14;2.60;;;2.40;;
11951;SDS011;6036;41.840;23.486;2022-08-06T12:35:54;2.83;;;2.60;;
11951;SDS011;6036;41.840;23.486;2022-08-06T12:38:25;3.97;;;2.95;;
11951;SDS011;6036;41.840;23.486;2022-08-06T12:40:56;3.83;;;2.75;;
11951;SDS011;6036;41.840;23.486;2022-08-06T12:43:34;2.80;;;2.50;;
11951;SDS011;6036;41.840;23.486;2022-08-06T12:46:01;3.35;;;2.63;;
11951;SDS011;6036;41.840;23.486;2022-08-06T12:48:29;3.13;;;2.83;;
11951;SDS011;6036;41.840;23.486;2022-08-06T12:53:30;3.63;;;2.95;;
11951;SDS011;6036;41.840;23.486;2022-08-06T12:55:55;4.03;;;3.35;;
11951;SDS011;6036;41.840;23.486;2022-08-06T12:58:26;3.67;;;2.75;;
11951;SDS011;6036;41.840;23.486;2022-08-06T13:00:56;3.88;;;3.05;;
11951;SDS011;6036;41.840;23.486;2022-08-06T13:03:23;3.40;;;2.88;;
11951;SDS011;6036;41.840;23.486;2022-08-06T13:05:50;3.03;;;2.72;;
11951;SDS011;6036;41.840;23.486;2022-08-06T13:08:19;4.93;;;2.88;;
11951;SDS011;6036;41.840;23.486;2022-08-06T13:10:52;2.70;;;2.50;;
11951;SDS011;6036;41.840;23.486;2022-08-06T13:13:19;4.03;;;2.88;;
11951;SDS011;6036;41.840;23.486;2022-08-06T13:16:01;3.20;;;2.90;;
11951;SDS011;6036;41.840;23.486;2022-08-06T13:18:28;5.88;;;2.85;;
11951;SDS011;6036;41.840;23.486;2022-08-06T13:20:54;2.90;;;2.30;;
11951;SDS011;6036;41.840;23.486;2022-08-06T13:23:37;2.78;;;2.55;;
11951;SDS011;6036;41.840;23.486;2022-08-06T13:31:40;2.95;;;2.65;;
11951;SDS011;6036;41.840;23.486;2022-08-06T13:34:07;2.97;;;2.65;;
11951;SDS011;6036;41.840;23.486;2022-08-06T13:36:35;3.75;;;2.28;;
11951;SDS011;6036;41.840;23.486;2022-08-06T13:39:23;3.47;;;2.60;;
11951;SDS011;6036;41.840;23.486;2022-08-06T13:42:05;2.78;;;2.58;;
11951;SDS011;6036;41.840;23.486;2022-08-06T13:44:41;3.75;;;2.50;;
11951;SDS011;6036;41.840;23.486;2022-08-06T13:47:10;4.25;;;2.60;;
11951;SDS011;6036;41.840;23.486;2022-08-06T13:49:38;4.40;;;3.58;;
11951;SDS011;6036;41.840;23.486;2022-08-06T13:52:04;3.58;;;2.72;;
11951;SDS011;6036;41.840;23.486;2022-08-06T13:54:30;2.70;;;2.50;;
11951;SDS011;6036;41.840;23.486;2022-08-06T13:56:56;4.13;;;2.92;;
11951;SDS011;6036;41.840;23.486;2022-08-06T13:59:24;3.45;;;2.28;;
11951;SDS011;6036;41.840;23.486;2022-08-06T14:01:50;4.57;;;2.60;;
11951;SDS011;6036;41.840;23.486;2022-08-06T14:04:17;3.00;;;2.70;;
11951;SDS011;6036;41.840;23.486;2022-08-06T14:06:45;3.38;;;2.40;;
11951;SDS011;6036;41.840;23.486;2022-08-06T14:09:12;4.60;;;2.50;;
11951;SDS011;6036;41.840;23.486;2022-08-06T14:11:38;2.95;;;2.60;;
11951;SDS011;6036;41.840;23.486;2022-08-06T14:14:03;4.90;;;2.75;;
11951;SDS011;6036;41.840;23.486;2022-08-06T14:16:29;4.38;;;2.83;;
11951;SDS011;6036;41.840;23.486;2022-08-06T14:18:54;2.92;;;2.72;;
11951;SDS011;6036;41.840;23.486;2022-08-06T14:21:20;3.05;;;2.80;;
11951;SDS011;6036;41.840;23.486;2022-08-06T14:23:46;2.95;;;2.47;;
11951;SDS011;6036;41.840;23.486;2022-08-06T14:26:11;2.70;;;2.50;;
11951;SDS011;6036;41.840;23.486;2022-08-06T14:28:37;3.10;;;2.80;;
11951;SDS011;6036;41.840;23.486;2022-08-06T14:31:02;3.00;;;2.70;;
11951;SDS011;6036;41.840;23.486;2022-08-06T14:33:28;2.90;;;2.38;;
11951;SDS011;6036;41.840;23.486;2022-08-06T14:35:53;2.45;;;2.25;;
11951;SDS011;6036;41.840;23.486;2022-08-06T14:38:19;3.13;;;2.65;;
11951;SDS011;6036;41.840;23.486;2022-08-06T14:40:45;3.03;;;2.55;;
11951;SDS011;6036;41.840;23.486;2022-08-06T14:43:29;2.92;;;2.60;;
11951;SDS011;6036;41.840;23.486;2022-08-06T14:46:13;2.70;;;2.50;;
11951;SDS011;6036;41.840;23.486;2022-08-06T14:48:39;4.07;;;2.90;;
11951;SDS011;6036;41.840;23.486;2022-08-06T14:51:04;2.53;;;2.17;;
11951;SDS011;6036;41.840;23.486;2022-08-06T14:53:30;3.05;;;2.78;;
11951;SDS011;6036;41.840;23.486;2022-08-06T14:55:55;3.17;;;2.90;;
11951;SDS011;6036;41.840;23.486;2022-08-06T14:58:21;3.38;;;2.80;;
11951;SDS011;6036;41.840;23.486;2022-08-06T15:00:46;3.58;;;2.67;;
11951;SDS011;6036;41.840;23.486;2022-08-06T15:03:13;3.13;;;2.83;;
11951;SDS011;6036;41.840;23.486;2022-08-06T15:05:43;5.85;;;3.13;;
11951;SDS011;6036;41.840;23.486;2022-08-06T15:08:09;3.00;;;2.80;;
11951;SDS011;6036;41.840;23.486;2022-08-06T15:10:35;4.55;;;3.20;;
11951;SDS011;6036;41.840;23.486;2022-08-06T15:13:01;4.68;;;2.88;;
11951;SDS011;6036;41.840;23.486;2022-08-06T15:15:26;2.63;;;2.42;;
11951;SDS011;6036;41.840;23.486;2022-08-06T15:17:52;3.15;;;2.90;;
11951;SDS011;6036;41.840;23.486;2022-08-06T15:20:17;3.47;;;2.80;;
11951;SDS011;6036;41.840;23.486;2022-08-06T15:22:43;2.92;;;2.72;;
11951;SDS011;6036;41.840;23.486;2022-08-06T15:25:08;3.45;;;2.90;;
11951;SDS011;6036;41.840;23.486;2022-08-06T15:27:34;2.70;;;2.50;;
11951;SDS011;6036;41.840;23.486;2022-08-06T15:29:59;3.35;;;2.65;;
11951;SDS011;6036;41.840;23.486;2022-08-06T15:32:25;4.80;;;2.80;;
11951;SDS011;6036;41.840;23.486;2022-08-06T15:34:51;4.68;;;2.88;;
11951;SDS011;6036;41.840;23.486;2022-08-06T15:37:17;3.28;;;2.67;;
11951;SDS011;6036;41.840;23.486;2022-08-06T15:39:44;2.70;;;2.50;;
11951;SDS011;6036;41.840;23.486;2022-08-06T15:42:10;3.55;;;3.08;;
11951;SDS011;6036;41.840;23.486;2022-08-06T15:44:36;6.50;;;2.67;;
11951;SDS011;6036;41.840;23.486;2022-08-06T15:47:03;4.53;;;3.33;;
11951;SDS011;6036;41.840;23.486;2022-08-06T15:49:29;3.20;;;2.70;;
11951;SDS011;6036;41.840;23.486;2022-08-06T15:51:55;3.05;;;2.75;;
11951;SDS011;6036;41.840;23.486;2022-08-06T15:54:21;3.15;;;2.70;;
11951;SDS011;6036;41.840;23.486;2022-08-06T15:56:46;3.10;;;2.63;;
11951;SDS011;6036;41.840;23.486;2022-08-06T15:59:12;2.47;;;2.28;;
11951;SDS011;6036;41.840;23.486;2022-08-06T16:01:41;2.60;;;2.40;;
11951;SDS011;6036;41.840;23.486;2022-08-06T16:04:07;2.58;;;2.38;;
11951;SDS011;6036;41.840;23.486;2022-08-06T16:06:32;3.47;;;2.83;;
11951;SDS011;6036;41.840;23.486;2022-08-06T16:08:58;3.35;;;3.05;;
11951;SDS011;6036;41.840;23.486;2022-08-06T16:11:23;4.53;;;3.22;;
11951;SDS011;6036;41.840;23.486;2022-08-06T16:13:49;3.80;;;3.30;;
11951;SDS011;6036;41.840;23.486;2022-08-06T16:16:14;2.67;;;2.47;;
11951;SDS011;6036;41.840;23.486;2022-08-06T16:18:39;3.45;;;2.88;;
11951;SDS011;6036;41.840;23.486;2022-08-06T16:21:05;3.75;;;2.55;;